Argonia, KS

10:20 AM CST on December 08, 2016 (GMT -0600)
farm | | Change Station

Elev 1191 ft 37.14 °N, 97.54 °W | Updated 6 seconds ago

Clear
Clear
24.4 °F
Feels Like 13 °F
N
12.0
Wind Variable Wind from NNW

Today
High -- | Low -- °F
--% Chance of Precip.
Yesterday
High -- | Low -- °F
Precip. -- in
Pressure 30.76 in
Visibility 10.0 miles
Clouds Few 18000 ft
Windchill 13 °F
Dew Point 9 °F
Humidity 53%
Rainfall 0.00 in
Snow Depth Not available.
7:33 AM 5:13 PM
Waxing Gibbous, 64% visible
METAR KICT 081553Z 34011KT 10SM FEW180 M06/M14 A3070 RMK AO2 SLP417 T10611144
Pressure 30.76 in
Visibility 10.0 miles
Clouds Few 18000 ft
Windchill 13 °F
Dew Point 9 °F
Humidity 53%
Rainfall 0.00 in
Snow Depth Not available.
7:33 AM 5:13 PM
Waxing Gibbous, 64% visible
METAR KICT 081553Z 34011KT 10SM FEW180 M06/M14 A3070 RMK AO2 SLP417 T10611144

10-Day Weather Forecast

Almanac

Astronomy

Dec. 08, 2016 Rise Set
Actual Time
Civil Twilight
Nautical Twilight
Astronomical Twilight
Moon
Length of Visible Light
Length of Day
Tomorrow will be .
, % of the Moon is Illuminated

Today's Extremes

State Highs State Lows

Community

WunderPhotos

Upload Photos

1,956,274 photos uploaded!

WunderBlog® & News

Nearby

Air Quality

  Air Quality AQ Index Pollutant
Not available.

Snow Depth

Station Depth Elevation

Earthquake Activity

City Distance Mag. Time & Date
Minimum magnitude displayed is 2.5.

Coastal Water Temperatures

Place Temperature

Stations

Nearby Weather Stations

Station Location Temp. Windchill Dew Point Humidity Wind Precip. Elev Updated Type
                   

Watches & Warnings

There are currently no watches in effect.